x

Hi-a389 Tabs V (42047) Weather Station

6:00pm - Fri 21st Jul 2017 All times are CDT. -5 hours from GMT.

  • Wind
    9mph, 11mph gusts
  • Sea Temp 87°f
  • Sea Pressure 1015.8mb
  • Hi-a389 Tabs V
  • Hi-a389 Tabs V

More Historic Weather Station data

Upgrade to MSW Pro to gain access to the past 30 days of data for over 8000 Wavebouys and Weather Stations around the globe.

Join Pro

Comparision Forecast

View Surf forecast
   
Fri 07/21 6:00pm 9 11 mph 1015.8mb 87f
5:00pm 9 11 mph 1015.8mb 87f
4:00pm 13 16 mph 1016.3mb 86f
3:00pm 7 9 mph 1017mb 86f
2:00pm 2 4 mph 1017.4mb 86f
1:00pm 2 4 mph 1017.8mb 86f
12:00pm 2 4 mph 1018mb 86f
11:00am 2 2 mph 1018.2mb 86f
10:00am 2 4 mph 1018.1mb 85f
9:00am 9 11 mph 1018.1mb 85f
8:00am 7 13 mph 1018mb 85f
7:00am 4 7 mph 1017.1mb 85f
6:00am 4 7 mph 1016.4mb 85f
5:00am 4 7 mph 1016.1mb 86f
3:00am 7 9 mph 1016.4mb 86f
2:00am 7 9 mph 1017mb 86f
1:00am 9 11 mph 1017.1mb 86f
12:00am 7 9 mph 1017.5mb 86f
Thu 07/20 11:00pm 7 7 mph 1017.6mb 86f
6:00pm 2 4 mph 1017.4mb 87f
5:00pm 4 7 mph 1018mb 87f
2:00pm 4 7 mph 1019.8mb 86f
1:00pm 4 7 mph 1020mb 86f
12:00pm 7 9 mph 1020.3mb 85f
11:00am 7 9 mph 1020.8mb 85f
9:00am 9 9 mph 1020.7mb 85f
8:00am 13 16 mph 1020mb 86f
7:00am 9 9 mph 1020mb 86f
6:00am 9 11 mph 1019.4mb 85f
5:00am 4 7 mph 1019mb 85f
4:00am 9 9 mph 1019mb 85f
3:00am 9 11 mph 1018.9mb 86f
2:00am 9 11 mph 1019.2mb 85f
1:00am 11 13 mph 1019.4mb 86f
12:00am 9 9 mph 1019.4mb 88f
Wed 07/19 11:00pm 7 7 mph 1019.2mb 88f
6:00pm 4 7 mph 1018.7mb 87f
5:00pm 2 4 mph 1019.1mb 87f
4:00pm  -  2 mph 1019.4mb 86f
2:00pm 2 4 mph 1020.6mb 85f
1:00pm 2 4 mph 1020.9mb 85f
12:00pm 2 4 mph 1021.4mb 85f
11:00am  -  2 mph 1021.7mb 85f
10:00am 2 4 mph 1021.6mb 85f
9:00am 2 2 mph 1021.1mb 85f
8:00am 2 4 mph 1020.5mb 85f
7:00am 4 7 mph 1019.5mb 85f
6:00am 4 7 mph 1019.1mb 85f
5:00am 7 7 mph 1018.8mb 85f
4:00am 9 11 mph 1018.5mb 85f
3:00am 11 13 mph 1018.3mb 85f
2:00am 9 11 mph 1018.4mb 85f
1:00am 11 13 mph 1018.7mb 85f
12:00am 9 11 mph 1018.4mb 86f
Tue 07/18 11:00pm 9 9 mph 1018.2mb 86f
6:00pm 4 7 mph 1016.7mb 87f
5:00pm 2 4 mph 1017.1mb 86f
4:00pm 7 7 mph 1017.2mb 86f
3:00pm 2 4 mph 1017.7mb 85f
2:00pm 4 7 mph 1017.9mb 85f
1:00pm 4 4 mph 1018.4mb 85f
12:00pm 2 4 mph 1018.5mb 85f
11:00am  -  2 mph 1018.6mb 85f
10:00am 2 2 mph 1018.8mb 85f
9:00am 7 9 mph 1017.9mb 85f
8:00am 2 4 mph 1017.5mb 85f
7:00am 4 4 mph 1016.4mb 85f
6:00am 9 11 mph 1015.4mb 85f
5:00am 18 22 mph 1015.4mb 85f
4:00am 13 18 mph 1015.3mb 85f